logo
Search for airport 
image banner adimage banner adimage banner ad
image banner ad

MMZC - Zacatecas Aeropuerto Internacional Gral. Leobardo C. Ruiz

Located in Zacatecas, Mexico

ICAO - MMZC, IATA - ZCL

Data provided by Airmate  

General information

Coordinates: N22°53'51" W102°41'9"
Elevation is 7126 feet MSL.
 
View others Airports in Zacatecas

Operational data

Special qualification required
Current time UTC:
Current local time:
Weather
METAR: MMZC 220840Z E16010KT 8SM SKC 15/11 A3023 RMK HZY
TAF: TAF MMZC 220439Z 2206/2306 18005KT P6SM SCT030 TX28/2221Z TN13/2212Z TEMPO 2210/2214 3SM BR BKN010 FM221600 23012KT P6SM SCT030 FM230300 20005KT P6SM SKC
View NOTAMs / SUP AIP / TFR affecting this airport [VIEW]
Communications frequencies: [VIEW]

Runways:

RWY identifierQFULength (ft)Width (ft)SurfaceLDA (ft)
0228°9843148ASP
20208°9843148ASP

Airport contact information

Address: Zacatecas Mexico

Satellite view of MMZC